createdAt,value
2017-09-20T00:00:45.064Z,0
2017-09-20T00:01:45.038Z,0
2017-09-20T00:02:45.343Z,0
2017-09-20T00:03:45.007Z,0
2017-09-20T00:04:45.317Z,0
2017-09-20T00:05:45.622Z,0
2017-09-20T00:06:45.282Z,0
2017-09-20T00:07:45.298Z,0
2017-09-20T00:08:45.252Z,0
2017-09-20T00:09:45.250Z,0
2017-09-20T00:10:45.227Z,0
2017-09-20T00:11:44.893Z,0
2017-09-20T00:12:45.517Z,0
2017-09-20T00:13:45.184Z,0
2017-09-20T00:14:45.168Z,0
2017-09-20T00:15:45.152Z,0
2017-09-20T00:16:45.136Z,0
2017-09-20T00:17:44.810Z,0
2017-09-20T00:18:44.789Z,0
2017-09-20T00:19:45.416Z,0
2017-09-20T00:20:44.759Z,0
2017-09-20T00:21:45.383Z,0
2017-09-20T00:22:45.057Z,0
2017-09-20T00:23:44.711Z,0
2017-09-20T00:24:45.347Z,0
2017-09-20T00:25:45.009Z,0
2017-09-20T00:26:44.669Z,0
2017-09-20T00:27:44.330Z,0
2017-09-20T00:28:44.964Z,0
2017-09-20T00:29:44.946Z,0
2017-09-20T00:30:44.606Z,0
2017-09-20T00:31:44.594Z,0
2017-09-20T00:32:44.262Z,0
2017-09-20T00:33:45.213Z,0
2017-09-20T00:34:44.228Z,0
2017-09-20T00:35:45.184Z,0
2017-09-20T00:36:44.840Z,0
2017-09-20T00:37:44.508Z,0
2017-09-20T00:38:44.497Z,0
2017-09-20T00:39:44.809Z,0
2017-09-20T00:40:44.780Z,0
2017-09-20T00:41:44.768Z,0
2017-09-20T00:42:44.442Z,0
2017-09-20T00:43:44.735Z,0
2017-09-20T00:44:44.404Z,0
2017-09-20T00:45:44.392Z,0
2017-09-20T00:46:44.371Z,0
2017-09-20T00:47:44.356Z,0
2017-09-20T00:48:44.658Z,0
2017-09-20T00:49:44.965Z,0
2017-09-20T00:50:44.950Z,0
2017-09-20T00:51:44.297Z,0
2017-09-20T00:52:43.954Z,0
2017-09-20T00:53:44.587Z,0
2017-09-20T00:54:44.578Z,0
2017-09-20T00:55:44.555Z,0
2017-09-20T00:56:44.217Z,0
2017-09-20T00:57:44.200Z,0
2017-09-20T00:58:44.522Z,0
2017-09-20T00:59:44.814Z,0
2017-09-20T01:00:44.483Z,0
2017-09-20T01:01:44.784Z,0
2017-09-20T01:02:43.808Z,0
2017-09-20T01:03:44.431Z,0
2017-09-20T01:04:43.778Z,0
2017-09-20T01:05:44.425Z,0
2017-09-20T01:06:44.389Z,0
2017-09-20T01:07:44.062Z,0
2017-09-20T01:08:44.037Z,0
2017-09-20T01:09:44.029Z,0
2017-09-20T01:10:44.334Z,0
2017-09-20T01:11:44.633Z,0
2017-09-20T01:12:44.623Z,0
2017-09-20T01:13:44.313Z,0
2017-09-20T01:14:44.587Z,0
2017-09-20T01:15:44.248Z,0
2017-09-20T01:16:43.922Z,0
2017-09-20T01:17:43.897Z,0
2017-09-20T01:18:44.210Z,0
2017-09-20T01:19:43.867Z,0
2017-09-20T01:20:44.183Z,0
2017-09-20T01:21:43.841Z,0
2017-09-20T01:22:44.144Z,0
2017-09-20T01:23:43.805Z,0
2017-09-20T01:24:44.114Z,0
2017-09-20T01:25:44.418Z,0
2017-09-20T01:26:43.763Z,0
2017-09-20T01:27:44.387Z,0
2017-09-20T01:28:44.387Z,0
2017-09-20T01:29:43.716Z,0
2017-09-20T01:30:43.699Z,0
2017-09-20T01:31:44.329Z,0
2017-09-20T01:32:44.019Z,0
2017-09-20T01:33:43.658Z,0
2017-09-20T01:34:43.322Z,0
2017-09-20T01:35:43.627Z,0
2017-09-20T01:36:43.607Z,0
2017-09-20T01:37:43.912Z,0
2017-09-20T01:38:44.269Z,0
2017-09-20T01:39:44.198Z,0
2017-09-20T01:40:44.194Z,0
2017-09-20T01:41:43.535Z,0
2017-09-20T01:42:44.157Z,0
2017-09-20T01:43:44.181Z,0
2017-09-20T01:44:43.816Z,0
2017-09-20T01:45:43.467Z,0
2017-09-20T01:46:43.773Z,0
2017-09-20T01:47:43.123Z,0
2017-09-20T01:48:43.427Z,0
2017-09-20T01:49:43.614Z,0
2017-09-20T01:50:43.396Z,0
2017-09-20T01:51:43.381Z,0
2017-09-20T01:52:43.684Z,0
2017-09-20T01:53:43.684Z,0
2017-09-20T01:54:43.339Z,0
2017-09-20T01:55:42.999Z,0
2017-09-20T01:56:43.308Z,0
2017-09-20T01:57:43.934Z,0
2017-09-20T01:58:43.279Z,0
2017-09-20T01:59:43.283Z,0
2017-09-20T02:00:43.249Z,0
2017-09-20T02:01:43.581Z,0
2017-09-20T02:02:43.536Z,0
2017-09-20T02:03:42.912Z,0
2017-09-20T02:04:43.508Z,0
2017-09-20T02:05:43.485Z,0
2017-09-20T02:06:43.474Z,0
2017-09-20T02:07:43.456Z,0
2017-09-20T02:08:43.441Z,0
2017-09-20T02:09:43.425Z,0
2017-09-20T02:10:42.764Z,0
2017-09-20T02:11:43.071Z,0
2017-09-20T02:12:43.378Z,0
2017-09-20T02:13:43.040Z,0
2017-09-20T02:14:43.664Z,0
2017-09-20T02:15:43.014Z,0
2017-09-20T02:16:43.349Z,0
2017-09-20T02:17:42.987Z,0
2017-09-20T02:18:43.609Z,0
2017-09-20T02:19:42.953Z,0
2017-09-20T02:20:43.248Z,0
2017-09-20T02:21:43.240Z,0
2017-09-20T02:22:42.575Z,0
2017-09-20T02:23:42.890Z,0
2017-09-20T02:24:42.871Z,0
2017-09-20T02:25:43.209Z,0
2017-09-20T02:26:43.489Z,0
2017-09-20T02:27:43.145Z,0
2017-09-20T02:28:43.136Z,0
2017-09-20T02:29:42.518Z,0
2017-09-20T02:30:43.103Z,0
2017-09-20T02:31:42.764Z,0
2017-09-20T02:32:42.745Z,0
2017-09-20T02:33:42.412Z,0
2017-09-20T02:34:43.367Z,0
2017-09-20T02:35:43.346Z,0
2017-09-20T02:36:43.009Z,0
2017-09-20T02:37:42.673Z,0
2017-09-20T02:38:43.304Z,0
2017-09-20T02:39:42.332Z,0
2017-09-20T02:40:42.980Z,0
2017-09-20T02:41:42.611Z,0
2017-09-20T02:42:42.598Z,0
2017-09-20T02:43:42.265Z,0
2017-09-20T02:44:42.895Z,0
2017-09-20T02:45:42.868Z,0
2017-09-20T02:46:42.857Z,0
2017-09-20T02:47:42.512Z,0
2017-09-20T02:48:42.833Z,0
2017-09-20T02:49:42.807Z,0
2017-09-20T02:50:42.796Z,0
2017-09-20T02:51:42.132Z,0
2017-09-20T02:52:42.771Z,0
2017-09-20T02:53:42.422Z,0
2017-09-20T02:54:42.733Z,0
2017-09-20T02:55:42.710Z,0
2017-09-20T02:56:42.375Z,0
2017-09-20T02:57:42.682Z,0
2017-09-20T02:58:42.346Z,0
2017-09-20T02:59:42.332Z,0
2017-09-20T03:00:42.638Z,0
2017-09-20T03:01:42.617Z,0
2017-09-20T03:02:41.960Z,0
2017-09-20T03:03:42.916Z,0
2017-09-20T03:04:42.253Z,0
2017-09-20T03:05:42.236Z,0
2017-09-20T03:06:42.546Z,0
2017-09-20T03:07:42.534Z,0
2017-09-20T03:08:42.201Z,0
2017-09-20T03:09:42.499Z,0
2017-09-20T03:10:42.159Z,0
2017-09-20T03:11:42.142Z,0
2017-09-20T03:12:42.441Z,0
2017-09-20T03:13:42.111Z,0
2017-09-20T03:14:42.416Z,0
2017-09-20T03:15:42.396Z,0
2017-09-20T03:16:42.385Z,0
2017-09-20T03:17:42.702Z,0
2017-09-20T03:18:42.038Z,0
2017-09-20T03:19:42.339Z,0
2017-09-20T03:20:42.653Z,0
2017-09-20T03:21:42.314Z,0
2017-09-20T03:22:42.293Z,0
2017-09-20T03:23:41.960Z,0
2017-09-20T03:24:42.277Z,0
2017-09-20T03:25:42.571Z,0
2017-09-20T03:26:41.915Z,0
2017-09-20T03:27:42.531Z,0
2017-09-20T03:28:41.875Z,0
2017-09-20T03:29:42.197Z,0
2017-09-20T03:30:42.205Z,0
2017-09-20T03:31:41.842Z,0
2017-09-20T03:32:42.144Z,0
2017-09-20T03:33:42.124Z,0
2017-09-20T03:34:41.464Z,0
2017-09-20T03:35:42.094Z,0
2017-09-20T03:36:41.761Z,0
2017-09-20T03:37:41.736Z,0
2017-09-20T03:38:41.405Z,0
2017-09-20T03:39:42.031Z,0
2017-09-20T03:40:42.013Z,0
2017-09-20T03:41:42.000Z,0
2017-09-20T03:42:41.658Z,0
2017-09-20T03:43:41.974Z,0
2017-09-20T03:44:41.634Z,0
2017-09-20T03:45:42.289Z,0
2017-09-20T03:46:41.601Z,0
2017-09-20T03:47:42.234Z,0
2017-09-20T03:48:41.898Z,0
2017-09-20T03:49:41.759Z,0
2017-09-20T03:50:41.865Z,0
2017-09-20T03:51:41.845Z,0
2017-09-20T03:52:41.508Z,0
2017-09-20T03:53:41.818Z,0
2017-09-20T03:54:41.478Z,0
2017-09-20T03:55:41.781Z,0
2017-09-20T03:56:42.092Z,0
2017-09-20T03:57:41.429Z,0
2017-09-20T03:58:42.062Z,0
2017-09-20T03:59:41.725Z,0
2017-09-20T04:00:41.385Z,0
2017-09-20T04:01:41.692Z,0
2017-09-20T04:02:41.356Z,0
2017-09-20T04:03:41.339Z,0
2017-09-20T04:04:41.331Z,0
2017-09-20T04:05:41.305Z,0
2017-09-20T04:06:41.932Z,0
2017-09-20T04:07:41.595Z,0
2017-09-20T04:08:41.580Z,0
2017-09-20T04:09:40.925Z,0
2017-09-20T04:10:41.553Z,0
2017-09-20T04:11:41.540Z,0
2017-09-20T04:12:41.524Z,0
2017-09-20T04:13:41.187Z,0
2017-09-20T04:14:41.812Z,0
2017-09-20T04:15:41.479Z,0
2017-09-20T04:16:41.461Z,0
2017-09-20T04:17:41.767Z,0
2017-09-20T04:18:41.430Z,0
2017-09-20T04:19:40.776Z,0
2017-09-20T04:20:41.404Z,0
2017-09-20T04:21:41.395Z,0
2017-09-20T04:22:41.379Z,0
2017-09-20T04:23:41.034Z,0
2017-09-20T04:24:41.019Z,0
2017-09-20T04:25:41.319Z,0
2017-09-20T04:26:41.314Z,0
2017-09-20T04:27:41.291Z,0
2017-09-20T04:28:40.949Z,0
2017-09-20T04:29:40.936Z,0
2017-09-20T04:30:41.616Z,0
2017-09-20T04:31:41.226Z,0
2017-09-20T04:32:40.574Z,0
2017-09-20T04:33:41.193Z,0
2017-09-20T04:34:41.515Z,0
2017-09-20T04:35:41.169Z,0
2017-09-20T04:36:41.152Z,0
2017-09-20T04:37:41.199Z,0
2017-09-20T04:38:41.128Z,0
2017-09-20T04:39:41.106Z,0
2017-09-20T04:40:40.762Z,0
2017-09-20T04:41:41.073Z,0
2017-09-20T04:42:41.381Z,0
2017-09-20T04:43:41.366Z,0
2017-09-20T04:44:41.030Z,0
2017-09-20T04:45:40.692Z,0
2017-09-20T04:46:41.330Z,0
2017-09-20T04:47:40.666Z,0
2017-09-20T04:48:41.010Z,0
2017-09-20T04:49:40.958Z,0
2017-09-20T04:50:41.258Z,4
2017-09-20T04:51:40.602Z,0
2017-09-20T04:52:40.589Z,4
2017-09-20T04:53:40.888Z,4
2017-09-20T04:54:40.555Z,4
2017-09-20T04:55:40.540Z,8
2017-09-20T04:56:40.579Z,8
2017-09-20T04:57:40.826Z,8
2017-09-20T04:58:40.496Z,12
2017-09-20T04:59:40.520Z,12
2017-09-20T05:00:40.794Z,12
2017-09-20T05:01:40.128Z,12
2017-09-20T05:02:41.080Z,12
2017-09-20T05:03:40.416Z,12
2017-09-20T05:04:40.720Z,16
2017-09-20T05:05:40.710Z,20
2017-09-20T05:06:40.372Z,24
2017-09-20T05:07:40.353Z,28
2017-09-20T05:08:40.980Z,36
2017-09-20T05:09:40.645Z,44
2017-09-20T05:10:40.947Z,52
2017-09-20T05:11:39.970Z,56
2017-09-20T05:12:39.956Z,60
2017-09-20T05:13:40.615Z,64
2017-09-20T05:14:40.567Z,64
2017-09-20T05:15:40.576Z,68
2017-09-20T05:16:39.894Z,72
2017-09-20T05:17:40.847Z,80
2017-09-20T05:18:40.188Z,84
2017-09-20T05:19:40.173Z,96
2017-09-20T05:20:40.171Z,108
2017-09-20T05:21:40.786Z,124
2017-09-20T05:22:40.771Z,132
2017-09-20T05:23:39.784Z,136
2017-09-20T05:24:40.413Z,136
2017-09-20T05:25:40.724Z,132
2017-09-20T05:26:40.704Z,116
2017-09-20T05:27:40.055Z,108
2017-09-20T05:28:40.033Z,112
2017-09-20T05:29:39.701Z,120
2017-09-20T05:30:40.646Z,132
2017-09-20T05:31:40.305Z,132
2017-09-20T05:32:40.291Z,132
2017-09-20T05:33:40.286Z,124
2017-09-20T05:34:40.257Z,132
2017-09-20T05:35:39.611Z,136
2017-09-20T05:36:39.912Z,144
2017-09-20T05:37:40.217Z,164
2017-09-20T05:38:39.885Z,192
2017-09-20T05:39:40.184Z,208
2017-09-20T05:40:40.172Z,196
2017-09-20T05:41:40.156Z,180
2017-09-20T05:42:39.822Z,172
2017-09-20T05:43:40.479Z,180
2017-09-20T05:44:39.787Z,192
2017-09-20T05:45:39.458Z,192
2017-09-20T05:46:40.113Z,176
2017-09-20T05:47:40.077Z,164
2017-09-20T05:48:40.374Z,164
2017-09-20T05:49:40.230Z,164
2017-09-20T05:50:39.375Z,164
2017-09-20T05:51:40.012Z,168
2017-09-20T05:52:39.670Z,180
2017-09-20T05:53:39.969Z,204
2017-09-20T05:54:39.638Z,236
2017-09-20T05:55:40.266Z,252
2017-09-20T05:56:40.243Z,256
2017-09-20T05:57:39.589Z,248
2017-09-20T05:58:39.899Z,252
2017-09-20T05:59:39.877Z,264
2017-09-20T06:00:40.189Z,280
2017-09-20T06:01:39.863Z,288
2017-09-20T06:02:39.848Z,308
2017-09-20T06:03:39.497Z,324
2017-09-20T06:04:39.482Z,336
2017-09-20T06:05:40.110Z,352
2017-09-20T06:06:40.099Z,372
2017-09-20T06:07:39.768Z,404
2017-09-20T06:08:40.097Z,456
2017-09-20T06:09:40.053Z,504
2017-09-20T06:10:39.715Z,536
2017-09-20T06:11:40.032Z,560
2017-09-20T06:12:39.748Z,576
2017-09-20T06:13:39.669Z,568
2017-09-20T06:14:39.021Z,548
2017-09-20T06:15:39.647Z,536
2017-09-20T06:16:39.953Z,548
2017-09-20T06:17:39.288Z,572
2017-09-20T06:18:39.269Z,608
2017-09-20T06:19:39.899Z,696
2017-09-20T06:20:38.930Z,808
2017-09-20T06:21:39.231Z,904
2017-09-20T06:22:39.852Z,924
2017-09-20T06:23:39.214Z,848
2017-09-20T06:24:39.504Z,748
2017-09-20T06:25:39.813Z,660
2017-09-20T06:26:39.155Z,636
2017-09-20T06:27:39.139Z,724
2017-09-20T06:28:39.151Z,856
2017-09-20T06:29:39.438Z,960
2017-09-20T06:30:39.091Z,1036
2017-09-20T06:31:39.081Z,1076
2017-09-20T06:32:39.064Z,1104
2017-09-20T06:33:39.373Z,1140
2017-09-20T06:34:39.030Z,1192
2017-09-20T06:35:39.349Z,1196
2017-09-20T06:36:39.020Z,1124
2017-09-20T06:37:38.989Z,1056
2017-09-20T06:38:38.974Z,1028
2017-09-20T06:39:38.965Z,1000
2017-09-20T06:40:39.268Z,960
2017-09-20T06:41:39.579Z,920
2017-09-20T06:42:39.233Z,888
2017-09-20T06:43:39.248Z,868
2017-09-20T06:44:39.532Z,848
2017-09-20T06:45:38.873Z,844
2017-09-20T06:46:39.176Z,832
2017-09-20T06:47:39.161Z,816
2017-09-20T06:48:38.823Z,824
2017-09-20T06:49:38.815Z,808
2017-09-20T06:50:39.113Z,780
2017-09-20T06:51:38.776Z,744
2017-09-20T06:52:39.092Z,688
2017-09-20T06:53:39.072Z,624
2017-09-20T06:54:39.055Z,596
2017-09-20T06:55:38.724Z,608
2017-09-20T06:56:38.710Z,648
2017-09-20T06:57:38.692Z,692
2017-09-20T06:58:38.676Z,772
2017-09-20T06:59:38.987Z,908
2017-09-20T07:00:38.972Z,1072
2017-09-20T07:01:38.969Z,1224
2017-09-20T07:02:38.949Z,1392
2017-09-20T07:03:38.926Z,1580
2017-09-20T07:04:38.908Z,1784
2017-09-20T07:05:39.224Z,1896
2017-09-20T07:06:38.879Z,1888
2017-09-20T07:07:38.866Z,1876
2017-09-20T07:08:38.845Z,1960
2017-09-20T07:09:38.843Z,2116
2017-09-20T07:10:38.824Z,2336
2017-09-20T07:11:38.812Z,2544
2017-09-20T07:12:38.792Z,2672
2017-09-20T07:13:38.460Z,2724
2017-09-20T07:14:38.765Z,2672
2017-09-20T07:15:38.432Z,2596
2017-09-20T07:16:38.095Z,2624
2017-09-20T07:17:38.730Z,2708
2017-09-20T07:18:38.382Z,2868
2017-09-20T07:19:39.014Z,3000
2017-09-20T07:20:38.038Z,3148
2017-09-20T07:21:38.339Z,3352
2017-09-20T07:22:38.965Z,3524
2017-09-20T07:23:38.630Z,3724
2017-09-20T07:24:38.618Z,3940
2017-09-20T07:25:38.604Z,3916
2017-09-20T07:26:38.603Z,3616
2017-09-20T07:27:37.930Z,3276
2017-09-20T07:28:38.241Z,3108
2017-09-20T07:29:38.224Z,3204
2017-09-20T07:30:38.216Z,3464
2017-09-20T07:31:38.518Z,3744
2017-09-20T07:32:38.860Z,4036
2017-09-20T07:33:38.823Z,4520
2017-09-20T07:34:38.469Z,4980
2017-09-20T07:35:38.460Z,5384
2017-09-20T07:36:38.443Z,5732
2017-09-20T07:37:38.110Z,5860
2017-09-20T07:38:37.776Z,5780
2017-09-20T07:39:38.408Z,5760
2017-09-20T07:40:38.071Z,5812
2017-09-20T07:41:37.732Z,5800
2017-09-20T07:42:38.039Z,5532
2017-09-20T07:43:38.040Z,5104
2017-09-20T07:44:38.343Z,4816
2017-09-20T07:45:38.640Z,4712
2017-09-20T07:46:38.307Z,4688
2017-09-20T07:47:38.298Z,4580
2017-09-20T07:48:37.961Z,4444
2017-09-20T07:49:38.790Z,4292
2017-09-20T07:50:37.929Z,4256
2017-09-20T07:51:38.243Z,4376
2017-09-20T07:52:38.233Z,4564
2017-09-20T07:53:38.526Z,4688
2017-09-20T07:54:38.533Z,4600
2017-09-20T07:55:38.512Z,4420
2017-09-20T07:56:37.526Z,4332
2017-09-20T07:57:38.480Z,4344
2017-09-20T07:58:37.498Z,4360
2017-09-20T07:59:38.122Z,4480
2017-09-20T08:00:38.437Z,4620
2017-09-20T08:01:38.421Z,4696
2017-09-20T08:02:38.093Z,4808
2017-09-20T08:03:38.393Z,4964
2017-09-20T08:04:38.056Z,4972
2017-09-20T08:05:37.730Z,4824
2017-09-20T08:06:38.374Z,4672
2017-09-20T08:07:38.017Z,4636
2017-09-20T08:08:37.690Z,4636
2017-09-20T08:09:37.993Z,4580
2017-09-20T08:10:37.659Z,4576
2017-09-20T08:11:37.326Z,4640
2017-09-20T08:12:37.659Z,4508
2017-09-20T08:13:37.616Z,4248
2017-09-20T08:14:37.612Z,4140
2017-09-20T08:15:37.923Z,4164
2017-09-20T08:16:38.218Z,4324
2017-09-20T08:17:38.211Z,4560
2017-09-20T08:18:37.878Z,4696
2017-09-20T08:19:38.193Z,4736
2017-09-20T08:20:37.531Z,4668
2017-09-20T08:21:37.839Z,4668
2017-09-20T08:22:37.822Z,4768
2017-09-20T08:23:37.812Z,4980
2017-09-20T08:24:38.117Z,5288
2017-09-20T08:25:37.783Z,5568
2017-09-20T08:26:37.811Z,5644
2017-09-20T08:27:37.432Z,5552
2017-09-20T08:28:37.755Z,5468
2017-09-20T08:29:37.740Z,5492
2017-09-20T08:30:37.719Z,5596
2017-09-20T08:31:37.712Z,5712
2017-09-20T08:32:37.053Z,5760
2017-09-20T08:33:37.362Z,5744
2017-09-20T08:34:37.687Z,5724
2017-09-20T08:35:37.653Z,5832
2017-09-20T08:36:37.686Z,5916
2017-09-20T08:37:36.981Z,5888
2017-09-20T08:38:37.616Z,5892
2017-09-20T08:39:37.282Z,6072
2017-09-20T08:40:37.592Z,6416
2017-09-20T08:41:37.247Z,6804
2017-09-20T08:42:37.564Z,7076
2017-09-20T08:43:36.905Z,6888
2017-09-20T08:44:37.213Z,6472
2017-09-20T08:45:37.846Z,6192
2017-09-20T08:46:37.510Z,6040
2017-09-20T08:47:37.820Z,5940
2017-09-20T08:48:37.492Z,5892
2017-09-20T08:49:37.150Z,5824
2017-09-20T08:50:37.455Z,5780
2017-09-20T08:51:37.125Z,5900
2017-09-20T08:52:37.758Z,6220
2017-09-20T08:53:37.435Z,6492
2017-09-20T08:54:37.093Z,6704
2017-09-20T08:55:37.076Z,6836
2017-09-20T08:56:37.391Z,6924
2017-09-20T08:57:36.721Z,7316
2017-09-20T08:58:37.036Z,7908
2017-09-20T08:59:37.023Z,8316
2017-09-20T09:00:37.339Z,8684
2017-09-20T09:01:36.998Z,8928
2017-09-20T09:02:37.305Z,9112
2017-09-20T09:03:36.976Z,9280
2017-09-20T09:04:36.958Z,9520
2017-09-20T09:05:36.947Z,9840
2017-09-20T09:06:36.930Z,10112
2017-09-20T09:07:36.927Z,10228
2017-09-20T09:08:36.911Z,10664
2017-09-20T09:09:37.211Z,10852
2017-09-20T09:10:36.882Z,10724
2017-09-20T09:11:37.195Z,10812
2017-09-20T09:12:37.506Z,10948
2017-09-20T09:13:37.178Z,11380
2017-09-20T09:14:37.154Z,11808
2017-09-20T09:15:36.497Z,11732
2017-09-20T09:16:37.452Z,11340
2017-09-20T09:17:37.439Z,11200
2017-09-20T09:18:37.117Z,11068
2017-09-20T09:19:37.094Z,10876
2017-09-20T09:20:37.132Z,10928
2017-09-20T09:21:37.076Z,10936
2017-09-20T09:22:36.746Z,10852
2017-09-20T09:23:37.042Z,10808
2017-09-20T09:24:37.039Z,10696
2017-09-20T09:25:37.346Z,10684
2017-09-20T09:26:36.689Z,10516
2017-09-20T09:27:36.682Z,10208
2017-09-20T09:28:36.987Z,9736
2017-09-20T09:29:36.687Z,9468
2017-09-20T09:30:36.961Z,9264
2017-09-20T09:31:37.273Z,9264
2017-09-20T09:32:36.627Z,9436
2017-09-20T09:33:36.607Z,9592
2017-09-20T09:34:36.601Z,9672
2017-09-20T09:35:37.240Z,9688
2017-09-20T09:36:36.256Z,9828
2017-09-20T09:37:36.565Z,9784
2017-09-20T09:38:36.552Z,9504
2017-09-20T09:39:36.553Z,9372
2017-09-20T09:40:36.538Z,10040
2017-09-20T09:41:36.522Z,11248
2017-09-20T09:42:36.523Z,11860
2017-09-20T09:43:36.824Z,11832
2017-09-20T09:44:36.802Z,10136
2017-09-20T09:45:36.853Z,11196
2017-09-20T09:46:36.147Z,11840
2017-09-20T09:47:36.774Z,11940
2017-09-20T09:48:36.763Z,12484
2017-09-20T09:49:36.637Z,12692
2017-09-20T09:50:36.424Z,12384
2017-09-20T09:51:36.412Z,12192
2017-09-20T09:52:37.041Z,11856
2017-09-20T09:53:36.706Z,12692
2017-09-20T09:54:36.052Z,13436
2017-09-20T09:55:37.014Z,14812
2017-09-20T09:56:36.681Z,14684
2017-09-20T09:57:36.981Z,14904
2017-09-20T09:58:36.012Z,15772
2017-09-20T09:59:36.327Z,16164
2017-09-20T10:00:35.987Z,16424
2017-09-20T10:01:36.946Z,16672
2017-09-20T10:02:36.942Z,14876
2017-09-20T10:03:36.283Z,11868
2017-09-20T10:04:36.910Z,9508
2017-09-20T10:05:36.902Z,8584
2017-09-20T10:06:36.299Z,8848
2017-09-20T10:07:36.237Z,10548
2017-09-20T10:08:36.230Z,11292
2017-09-20T10:09:36.214Z,9024
2017-09-20T10:10:35.885Z,7888
2017-09-20T10:11:36.527Z,8348
2017-09-20T10:12:36.824Z,9780
2017-09-20T10:13:36.818Z,11668
2017-09-20T10:14:36.488Z,12072
2017-09-20T10:15:36.794Z,12016
2017-09-20T10:16:36.464Z,11712
2017-09-20T10:17:36.453Z,9740
2017-09-20T10:18:36.442Z,8636
2017-09-20T10:19:36.111Z,8696
2017-09-20T10:20:36.103Z,9440
2017-09-20T10:21:36.411Z,10564
2017-09-20T10:22:36.402Z,12280
2017-09-20T10:23:35.773Z,12872
2017-09-20T10:24:36.054Z,12396
2017-09-20T10:25:36.371Z,10388
2017-09-20T10:26:36.361Z,8864
2017-09-20T10:27:36.668Z,10364
2017-09-20T10:28:36.339Z,11572
2017-09-20T10:29:35.729Z,12240
2017-09-20T10:30:36.358Z,14892
2017-09-20T10:31:35.983Z,16172
2017-09-20T10:32:35.981Z,17440
2017-09-20T10:33:36.288Z,17088
2017-09-20T10:34:36.598Z,16896
2017-09-20T10:35:35.940Z,16224
2017-09-20T10:36:35.609Z,15016
2017-09-20T10:37:36.246Z,15840
2017-09-20T10:38:36.548Z,15884
2017-09-20T10:39:36.541Z,15304
2017-09-20T10:40:36.206Z,18144
2017-09-20T10:41:36.232Z,19104
2017-09-20T10:42:36.186Z,17376
2017-09-20T10:43:36.187Z,18848
2017-09-20T10:44:36.169Z,22048
2017-09-20T10:45:35.515Z,19872
2017-09-20T10:46:35.827Z,17408
2017-09-20T10:47:36.171Z,17184
2017-09-20T10:48:36.134Z,15124
2017-09-20T10:49:36.118Z,12748
2017-09-20T10:50:36.114Z,11536
2017-09-20T10:51:36.424Z,9888
2017-09-20T10:52:36.117Z,10572
2017-09-20T10:53:36.080Z,9504
2017-09-20T10:54:36.084Z,9812
2017-09-20T10:55:35.744Z,12276
2017-09-20T10:56:35.727Z,12448
2017-09-20T10:57:35.398Z,12368
2017-09-20T10:58:36.360Z,14980
2017-09-20T10:59:36.024Z,17376
2017-09-20T11:00:36.328Z,20096
2017-09-20T11:01:36.005Z,17600
2017-09-20T11:02:35.674Z,16152
2017-09-20T11:03:35.983Z,13016
2017-09-20T11:04:35.972Z,11980
2017-09-20T11:05:35.321Z,12092
2017-09-20T11:06:35.632Z,12332
2017-09-20T11:07:35.617Z,11872
2017-09-20T11:08:35.928Z,14144
2017-09-20T11:09:35.920Z,15892
2017-09-20T11:10:35.912Z,14956
2017-09-20T11:11:35.585Z,15896
2017-09-20T11:12:36.221Z,14944
2017-09-20T11:13:35.890Z,12796
2017-09-20T11:14:35.881Z,10924
2017-09-20T11:15:35.551Z,11184
2017-09-20T11:16:35.857Z,10780
2017-09-20T11:17:35.538Z,11708
2017-09-20T11:18:35.517Z,13236
2017-09-20T11:19:35.507Z,14152
2017-09-20T11:20:35.823Z,14604
2017-09-20T11:21:35.809Z,14032
2017-09-20T11:22:35.819Z,12708
2017-09-20T11:23:35.785Z,10132
2017-09-20T11:24:35.458Z,7612
2017-09-20T11:25:35.462Z,6292
2017-09-20T11:26:35.119Z,6016
2017-09-20T11:27:35.750Z,6688
2017-09-20T11:28:35.422Z,8492
2017-09-20T11:29:35.408Z,11620
2017-09-20T11:30:35.736Z,14804
2017-09-20T11:31:35.068Z,16608
2017-09-20T11:32:35.385Z,17152
2017-09-20T11:33:35.706Z,17088
2017-09-20T11:34:36.011Z,16704
2017-09-20T11:35:35.674Z,16220
2017-09-20T11:36:35.678Z,16512
2017-09-20T11:37:35.015Z,16992
2017-09-20T11:38:35.327Z,17856
2017-09-20T11:39:35.315Z,16640
2017-09-20T11:40:35.627Z,13656
2017-09-20T11:41:35.938Z,10520
2017-09-20T11:42:35.289Z,8108
2017-09-20T11:43:35.277Z,6216
2017-09-20T11:44:35.267Z,5008
2017-09-20T11:45:35.900Z,4380
2017-09-20T11:46:35.571Z,4108
2017-09-20T11:47:35.561Z,4336
2017-09-20T11:48:34.905Z,4968
2017-09-20T11:49:35.303Z,5804
2017-09-20T11:50:35.210Z,6748
2017-09-20T11:51:35.533Z,7980
2017-09-20T11:52:35.508Z,9476
2017-09-20T11:53:34.862Z,11212
2017-09-20T11:54:34.850Z,12740
2017-09-20T11:55:35.805Z,13960
2017-09-20T11:56:35.789Z,14756
2017-09-20T11:57:35.472Z,15264
2017-09-20T11:58:35.464Z,15496
2017-09-20T11:59:35.766Z,15560
2017-09-20T12:00:35.433Z,15328
2017-09-20T12:01:35.103Z,15180
2017-09-20T12:02:35.093Z,14948
2017-09-20T12:03:35.095Z,14652
2017-09-20T12:04:35.400Z,14520
2017-09-20T12:05:34.745Z,14404
2017-09-20T12:06:35.704Z,13728
2017-09-20T12:07:35.692Z,12944
2017-09-20T12:08:35.044Z,12092
2017-09-20T12:09:35.025Z,11008
2017-09-20T12:10:35.362Z,9776
2017-09-20T12:11:35.652Z,9120
2017-09-20T12:12:34.679Z,9552
2017-09-20T12:13:34.981Z,10568
2017-09-20T12:14:35.300Z,10416
2017-09-20T12:15:34.982Z,8976
2017-09-20T12:16:34.964Z,7584
2017-09-20T12:17:34.959Z,6624
2017-09-20T12:18:34.963Z,6272
2017-09-20T12:19:34.933Z,6288
2017-09-20T12:20:35.570Z,5648
2017-09-20T12:21:34.913Z,4424
2017-09-20T12:22:34.905Z,3500
2017-09-20T12:23:35.532Z,3048
2017-09-20T12:24:34.908Z,2824
2017-09-20T12:25:35.196Z,2728
2017-09-20T12:26:34.873Z,2836
2017-09-20T12:27:35.176Z,3280
2017-09-20T12:28:35.172Z,3988
2017-09-20T12:29:34.839Z,4780
2017-09-20T12:30:35.464Z,5868
2017-09-20T12:31:34.498Z,7040
2017-09-20T12:32:34.804Z,7552
2017-09-20T12:33:35.441Z,7628
2017-09-20T12:34:34.789Z,7776
2017-09-20T12:35:35.094Z,8372
2017-09-20T12:36:35.084Z,8896
2017-09-20T12:37:35.072Z,9528
2017-09-20T12:38:35.066Z,10724
2017-09-20T12:39:35.054Z,12600
2017-09-20T12:40:35.085Z,16416
2017-09-20T12:41:34.717Z,21280
2017-09-20T12:42:35.021Z,22272
2017-09-20T12:43:35.024Z,22560
2017-09-20T12:44:35.012Z,22240
2017-09-20T12:45:34.676Z,21792
2017-09-20T12:46:34.677Z,22176
2017-09-20T12:47:34.983Z,22400
2017-09-20T12:48:34.648Z,22624
2017-09-20T12:49:34.964Z,23264
2017-09-20T12:50:34.946Z,24160
2017-09-20T12:51:35.267Z,24928
2017-09-20T12:52:34.935Z,24992
2017-09-20T12:53:34.606Z,24896
2017-09-20T12:54:34.594Z,26208
2017-09-20T12:55:34.902Z,29120
2017-09-20T12:56:34.896Z,32160
2017-09-20T12:57:34.568Z,37024
2017-09-20T12:58:35.200Z,35968
2017-09-20T12:59:34.879Z,35232
2017-09-20T13:00:34.242Z,35552
2017-09-20T13:01:34.861Z,36576
2017-09-20T13:02:34.847Z,34656
2017-09-20T13:03:35.161Z,32672
2017-09-20T13:04:35.192Z,28800
2017-09-20T13:05:35.154Z,27072
2017-09-20T13:06:35.150Z,26784
2017-09-20T13:07:34.492Z,26432
2017-09-20T13:08:34.494Z,24864
2017-09-20T13:09:34.810Z,25536
2017-09-20T13:10:34.494Z,26240
2017-09-20T13:11:34.149Z,20288
2017-09-20T13:12:34.464Z,17344
2017-09-20T13:13:34.458Z,14936
2017-09-20T13:14:34.778Z,13160
2017-09-20T13:15:34.769Z,11512
2017-09-20T13:16:35.089Z,10480
2017-09-20T13:17:35.074Z,9248
2017-09-20T13:18:34.112Z,9576
2017-09-20T13:19:34.427Z,12596
2017-09-20T13:20:34.418Z,9476
2017-09-20T13:21:34.736Z,6536
2017-09-20T13:22:34.722Z,4960
2017-09-20T13:23:35.034Z,4200
2017-09-20T13:24:35.034Z,3740
2017-09-20T13:25:34.718Z,3604
2017-09-20T13:26:35.030Z,3536
2017-09-20T13:27:34.686Z,3428
2017-09-20T13:28:34.681Z,3344
2017-09-20T13:29:34.999Z,3176
2017-09-20T13:30:34.694Z,2968
2017-09-20T13:31:34.334Z,2988
2017-09-20T13:32:34.997Z,3068
2017-09-20T13:33:34.322Z,3116
2017-09-20T13:34:33.995Z,3184
2017-09-20T13:35:34.628Z,3416
2017-09-20T13:36:34.292Z,3816
2017-09-20T13:37:34.932Z,4192
2017-09-20T13:38:34.613Z,4440
2017-09-20T13:39:34.911Z,4628
2017-09-20T13:40:34.593Z,4892
2017-09-20T13:41:34.255Z,5260
2017-09-20T13:42:34.566Z,5516
2017-09-20T13:43:34.891Z,5688
2017-09-20T13:44:34.871Z,5764
2017-09-20T13:45:34.221Z,5816
2017-09-20T13:46:34.216Z,6060